createdAt,value
2023-03-27T00:01:44.369Z,77.39
2023-03-27T00:04:11.702Z,77.88
2023-03-27T00:06:45.690Z,76.32
2023-03-27T00:09:13.112Z,77.95
2023-03-27T00:11:40.597Z,79.67
2023-03-27T00:14:07.891Z,79.99
2023-03-27T00:16:35.218Z,80.07
2023-03-27T00:19:02.499Z,79.99
2023-03-27T00:21:29.839Z,80.21
2023-03-27T00:23:57.180Z,80.45
2023-03-27T00:26:24.503Z,80.41
2023-03-27T00:28:52.873Z,79.60
2023-03-27T00:31:20.272Z,79.32
2023-03-27T00:33:47.591Z,80.09
2023-03-27T00:36:15.440Z,80.76
2023-03-27T00:38:43.898Z,80.41
2023-03-27T00:41:11.479Z,78.90
2023-03-27T00:43:45.425Z,78.64
2023-03-27T00:46:16.051Z,79.37
2023-03-27T00:48:44.075Z,80.03
2023-03-27T00:51:11.544Z,79.86
2023-03-27T00:53:38.923Z,80.40
2023-03-27T00:56:07.794Z,79.83
2023-03-27T00:58:49.019Z,80.11
2023-03-27T01:01:16.763Z,80.94
2023-03-27T01:03:45.595Z,81.58
2023-03-27T01:06:14.148Z,81.41
2023-03-27T01:08:41.880Z,81.37
2023-03-27T01:11:15.470Z,81.30
2023-03-27T01:14:05.634Z,81.26
2023-03-27T01:16:56.219Z,81.14
2023-03-27T01:19:52.038Z,80.89
2023-03-27T01:22:31.727Z,81.08
2023-03-27T01:25:08.458Z,81.93
2023-03-27T01:27:54.853Z,81.37
2023-03-27T01:30:31.663Z,81.51
2023-03-27T01:33:21.601Z,81.28
2023-03-27T01:36:08.433Z,81.25
2023-03-27T01:39:01.105Z,80.98
2023-03-27T01:42:10.845Z,81.02
2023-03-27T01:45:07.004Z,80.97
2023-03-27T01:47:40.548Z,81.33
2023-03-27T01:50:13.152Z,81.73
2023-03-27T01:52:42.171Z,82.37
2023-03-27T01:55:12.493Z,83.19
2023-03-27T01:57:48.766Z,83.21
2023-03-27T02:00:21.907Z,83.40
2023-03-27T02:03:16.777Z,83.82
2023-03-27T02:06:21.642Z,83.72
2023-03-27T02:08:54.664Z,83.40
2023-03-27T02:11:23.382Z,83.32
2023-03-27T02:13:53.404Z,83.24
2023-03-27T02:16:26.764Z,83.78
2023-03-27T02:18:59.930Z,83.92
2023-03-27T02:21:27.979Z,84.15
2023-03-27T02:24:02.050Z,84.21
2023-03-27T02:26:29.888Z,83.42
2023-03-27T02:29:18.746Z,82.72
2023-03-27T02:31:52.371Z,82.60
2023-03-27T02:34:50.473Z,82.57
2023-03-27T02:37:39.656Z,81.91
2023-03-27T02:40:22.866Z,82.17
2023-03-27T02:43:27.090Z,81.77
2023-03-27T02:46:04.605Z,82.09
2023-03-27T02:48:45.723Z,82.29
2023-03-27T02:51:15.498Z,82.25
2023-03-27T02:53:52.675Z,81.93
2023-03-27T02:56:20.286Z,81.81
2023-03-27T02:58:57.349Z,82.00
2023-03-27T03:01:50.778Z,82.23
2023-03-27T03:04:28.520Z,81.98
2023-03-27T03:07:06.583Z,82.39
2023-03-27T03:09:34.712Z,82.40
2023-03-27T03:12:08.633Z,83.00
2023-03-27T03:14:41.101Z,83.26
2023-03-27T03:17:09.092Z,83.60
2023-03-27T03:19:37.318Z,84.08
2023-03-27T03:22:06.035Z,83.97
2023-03-27T03:24:37.630Z,83.68
2023-03-27T03:27:05.910Z,83.55
2023-03-27T03:29:44.344Z,83.56
2023-03-27T03:32:23.409Z,83.28
2023-03-27T03:34:52.645Z,83.42
2023-03-27T03:37:20.640Z,83.33
2023-03-27T03:39:47.952Z,83.11
2023-03-27T03:42:22.848Z,82.84
2023-03-27T03:44:53.043Z,83.42
2023-03-27T03:47:22.371Z,83.19
2023-03-27T03:49:50.541Z,82.96
2023-03-27T03:52:18.527Z,83.03
2023-03-27T03:54:46.843Z,83.78
2023-03-27T03:57:14.595Z,83.51
2023-03-27T03:59:43.499Z,83.33
2023-03-27T04:02:30.442Z,82.95
2023-03-27T04:05:08.452Z,82.91
2023-03-27T04:07:37.253Z,82.07
2023-03-27T04:10:42.791Z,82.36
2023-03-27T04:13:20.074Z,80.97
2023-03-27T04:15:57.185Z,81.38
2023-03-27T04:18:33.024Z,79.21
2023-03-27T04:21:03.892Z,76.49
2023-03-27T04:23:31.340Z,73.78
2023-03-27T04:26:00.502Z,73.74
2023-03-27T04:28:37.332Z,73.47
2023-03-27T04:31:24.539Z,76.05
2023-03-27T04:34:22.316Z,73.99
2023-03-27T04:37:05.140Z,75.76
2023-03-27T04:39:37.233Z,73.23
2023-03-27T04:42:04.569Z,73.69
2023-03-27T04:44:32.272Z,75.57
2023-03-27T04:47:02.349Z,75.75
2023-03-27T04:49:30.079Z,73.85
2023-03-27T04:52:06.826Z,74.35
2023-03-27T04:54:34.625Z,74.04
2023-03-27T04:57:03.788Z,73.44
2023-03-27T04:59:32.174Z,73.42
2023-03-27T05:02:33.815Z,75.80
2023-03-27T05:05:14.591Z,74.09
2023-03-27T05:07:45.253Z,76.26
2023-03-27T05:10:21.833Z,74.04
2023-03-27T05:12:51.910Z,74.25
2023-03-27T05:15:19.415Z,74.50
2023-03-27T05:17:53.385Z,72.66
2023-03-27T05:20:24.085Z,73.17
2023-03-27T05:22:55.542Z,72.72
2023-03-27T05:25:26.112Z,74.48
2023-03-27T05:27:54.742Z,73.36
2023-03-27T05:30:27.048Z,71.71
2023-03-27T05:33:09.415Z,72.69
2023-03-27T05:35:38.146Z,71.52
2023-03-27T05:38:06.681Z,70.78
2023-03-27T05:40:40.138Z,72.54
2023-03-27T05:43:08.492Z,71.40
2023-03-27T05:45:37.538Z,70.69
2023-03-27T05:48:07.500Z,70.43
2023-03-27T05:50:41.870Z,72.75
2023-03-27T05:53:18.849Z,71.66
2023-03-27T05:56:09.746Z,69.91
2023-03-27T05:58:49.447Z,69.47
2023-03-27T06:01:16.885Z,69.83
2023-03-27T06:03:45.786Z,69.18
2023-03-27T06:06:28.995Z,70.26
2023-03-27T06:09:20.451Z,68.91
2023-03-27T06:12:23.326Z,69.73
2023-03-27T06:18:18.196Z,70.27
2023-03-27T06:21:01.065Z,69.21
2023-03-27T06:23:50.632Z,68.26
2023-03-27T06:26:26.564Z,70.20
2023-03-27T06:29:01.192Z,68.20
2023-03-27T06:31:48.337Z,69.17
2023-03-27T06:34:27.803Z,67.48
2023-03-27T06:37:09.073Z,67.61
2023-03-27T06:39:41.430Z,69.45
2023-03-27T06:42:09.153Z,67.94
2023-03-27T06:44:52.006Z,67.44
2023-03-27T06:47:54.686Z,68.88
2023-03-27T06:50:33.172Z,68.26
2023-03-27T06:53:15.918Z,66.11
2023-03-27T06:55:51.490Z,66.21
2023-03-27T06:58:20.928Z,66.46
2023-03-27T07:00:50.760Z,67.16
2023-03-27T07:03:20.812Z,67.44
2023-03-27T07:06:25.336Z,66.39
2023-03-27T07:08:58.172Z,67.10
2023-03-27T07:11:26.346Z,65.71
2023-03-27T07:13:56.676Z,67.05
2023-03-27T07:16:28.536Z,65.92
2023-03-27T07:18:59.426Z,66.82
2023-03-27T07:21:29.443Z,68.30
2023-03-27T07:23:59.830Z,68.08
2023-03-27T07:26:36.671Z,66.79
2023-03-27T07:29:19.300Z,67.91
2023-03-27T07:34:29.856Z,68.08
2023-03-27T07:37:23.183Z,67.51
2023-03-27T07:40:14.925Z,68.08
2023-03-27T07:42:54.929Z,66.24
2023-03-27T07:45:22.875Z,68.27
2023-03-27T07:47:52.670Z,65.45
2023-03-27T07:50:21.954Z,67.18
2023-03-27T07:52:51.534Z,65.63
2023-03-27T07:55:20.066Z,65.18
2023-03-27T07:58:02.302Z,64.89
2023-03-27T08:00:34.181Z,67.06
2023-03-27T08:03:10.752Z,65.47
2023-03-27T08:05:43.493Z,66.48
2023-03-27T08:08:13.894Z,66.23
2023-03-27T08:10:57.206Z,66.15
2023-03-27T08:13:26.759Z,66.66
2023-03-27T08:16:07.120Z,65.52
2023-03-27T08:18:40.149Z,66.91
2023-03-27T08:21:09.284Z,65.37
2023-03-27T08:23:43.016Z,64.38
2023-03-27T08:26:23.754Z,65.09
2023-03-27T08:28:58.740Z,65.75
2023-03-27T08:31:32.360Z,63.40
2023-03-27T08:34:03.477Z,65.17
2023-03-27T08:36:46.746Z,65.10
2023-03-27T08:39:19.526Z,62.77
2023-03-27T08:42:00.334Z,62.50
2023-03-27T08:44:32.674Z,62.64
2023-03-27T08:47:10.016Z,62.86
2023-03-27T08:49:57.479Z,61.73
2023-03-27T08:52:47.230Z,61.60
2023-03-27T08:55:42.882Z,63.46
2023-03-27T08:58:42.572Z,60.90
2023-03-27T09:01:38.533Z,62.28
2023-03-27T09:04:37.658Z,61.09
2023-03-27T09:07:29.772Z,60.04
2023-03-27T09:10:43.428Z,59.43
2023-03-27T09:13:36.776Z,60.90
2023-03-27T09:16:23.326Z,60.06
2023-03-27T09:19:16.118Z,59.56
2023-03-27T09:22:01.311Z,58.54
2023-03-27T09:24:59.819Z,60.05
2023-03-27T09:28:15.575Z,58.65
2023-03-27T09:30:49.225Z,59.15
2023-03-27T09:33:31.383Z,59.43
2023-03-27T09:35:59.655Z,59.92
2023-03-27T09:38:34.264Z,57.44
2023-03-27T09:41:08.388Z,58.04
2023-03-27T09:44:00.081Z,57.33
2023-03-27T09:46:27.929Z,56.94
2023-03-27T09:49:18.568Z,57.73
2023-03-27T09:51:56.935Z,58.96
2023-03-27T09:54:53.182Z,57.17
2023-03-27T09:57:29.480Z,58.02
2023-03-27T10:00:23.743Z,58.64
2023-03-27T10:03:04.860Z,58.36
2023-03-27T10:05:35.550Z,58.05
2023-03-27T10:08:04.125Z,58.77
2023-03-27T10:10:46.495Z,57.14
2023-03-27T10:13:29.658Z,56.99
2023-03-27T10:16:02.462Z,58.54
2023-03-27T10:18:44.995Z,56.38
2023-03-27T10:21:27.016Z,55.70
2023-03-27T10:24:06.500Z,56.06
2023-03-27T10:26:54.855Z,56.53
2023-03-27T10:29:28.358Z,56.81
2023-03-27T10:32:00.363Z,57.89
2023-03-27T10:34:58.290Z,57.89
2023-03-27T10:37:31.469Z,58.16
2023-03-27T10:40:25.792Z,57.55
2023-03-27T10:42:58.044Z,58.66
2023-03-27T10:45:25.745Z,58.80
2023-03-27T10:47:59.867Z,58.30
2023-03-27T10:50:45.748Z,58.52
2023-03-27T10:53:25.390Z,60.37
2023-03-27T10:56:10.224Z,59.74
2023-03-27T10:58:49.386Z,59.87
2023-03-27T11:01:28.486Z,59.33
2023-03-27T11:04:09.400Z,59.99
2023-03-27T11:06:46.629Z,60.06
2023-03-27T11:09:24.575Z,59.65
2023-03-27T11:12:11.729Z,58.15
2023-03-27T11:15:11.797Z,57.58
2023-03-27T11:17:43.014Z,56.69
2023-03-27T11:20:33.155Z,55.43
2023-03-27T11:23:58.990Z,56.41
2023-03-27T11:26:46.078Z,55.45
2023-03-27T11:29:21.386Z,55.96
2023-03-27T11:31:53.110Z,55.14
2023-03-27T11:34:57.931Z,53.84
2023-03-27T11:38:02.099Z,51.41
2023-03-27T11:40:45.988Z,51.16
2023-03-27T11:43:14.706Z,51.84
2023-03-27T11:45:58.313Z,50.88
2023-03-27T11:49:03.061Z,51.89
2023-03-27T11:51:48.799Z,51.35
2023-03-27T11:54:19.538Z,51.10
2023-03-27T11:56:55.821Z,51.73
2023-03-27T11:59:54.351Z,52.12
2023-03-27T12:02:29.201Z,52.71
2023-03-27T12:05:21.844Z,50.97
2023-03-27T12:08:31.895Z,51.36
2023-03-27T12:11:00.784Z,49.32
2023-03-27T12:13:47.834Z,50.20
2023-03-27T12:16:52.249Z,51.81
2023-03-27T12:19:47.471Z,50.91
2023-03-27T12:22:30.444Z,51.43
2023-03-27T12:25:23.963Z,49.68
2023-03-27T12:28:22.687Z,51.37
2023-03-27T12:31:47.976Z,51.78
2023-03-27T12:34:41.806Z,50.37
2023-03-27T12:37:11.104Z,50.29
2023-03-27T12:39:48.419Z,50.25
2023-03-27T12:42:48.767Z,49.02
2023-03-27T12:45:19.723Z,49.26
2023-03-27T12:48:20.406Z,49.72
2023-03-27T12:50:52.794Z,49.06
2023-03-27T12:53:48.538Z,47.30
2023-03-27T12:56:19.618Z,45.59
2023-03-27T12:58:51.917Z,46.68
2023-03-27T13:01:52.328Z,48.99
2023-03-27T13:05:08.632Z,48.37
2023-03-27T13:07:53.426Z,49.06
2023-03-27T13:11:09.866Z,46.43
2023-03-27T13:14:16.408Z,46.64
2023-03-27T13:17:21.176Z,46.67
2023-03-27T13:19:58.314Z,47.15
2023-03-27T13:23:01.212Z,47.50
2023-03-27T13:26:04.197Z,48.84
2023-03-27T13:28:38.449Z,47.93
2023-03-27T13:31:47.307Z,48.50
2023-03-27T13:34:26.912Z,46.06
2023-03-27T13:37:09.484Z,46.49
2023-03-27T13:40:10.361Z,45.88
2023-03-27T13:42:42.330Z,46.18
2023-03-27T13:45:32.161Z,46.16
2023-03-27T13:48:44.009Z,45.10
2023-03-27T13:51:33.007Z,44.83
2023-03-27T13:54:26.314Z,43.63
2023-03-27T13:57:09.539Z,44.72
2023-03-27T14:00:19.254Z,43.66
2023-03-27T14:02:58.995Z,43.66
2023-03-27T14:05:57.080Z,43.52
2023-03-27T14:08:38.773Z,44.34
2023-03-27T14:11:37.336Z,44.34
2023-03-27T14:14:19.805Z,44.14
2023-03-27T14:16:56.530Z,44.20
2023-03-27T14:19:32.911Z,44.53
2023-03-27T14:22:03.664Z,44.40
2023-03-27T14:24:44.495Z,45.19
2023-03-27T14:27:28.455Z,43.55
2023-03-27T14:30:09.036Z,43.95
2023-03-27T14:32:40.148Z,43.28
2023-03-27T14:35:29.739Z,43.56
2023-03-27T14:38:07.869Z,43.87
2023-03-27T14:40:47.688Z,45.29
2023-03-27T14:43:19.565Z,46.58
2023-03-27T14:45:52.681Z,46.74
2023-03-27T14:48:26.300Z,47.49
2023-03-27T14:50:55.559Z,46.66
2023-03-27T14:53:26.553Z,46.83
2023-03-27T14:56:11.759Z,47.56
2023-03-27T14:59:02.527Z,48.47
2023-03-27T15:01:42.944Z,48.03
2023-03-27T15:04:12.161Z,47.68
2023-03-27T15:06:41.877Z,46.79
2023-03-27T15:09:19.654Z,47.21
2023-03-27T15:12:05.783Z,46.86
2023-03-27T15:14:33.800Z,47.44
2023-03-27T15:17:08.850Z,45.58
2023-03-27T15:19:45.818Z,46.84
2023-03-27T15:22:35.485Z,47.44
2023-03-27T15:25:05.474Z,47.86
2023-03-27T15:27:38.351Z,48.01
2023-03-27T15:30:37.895Z,46.85
2023-03-27T15:33:06.003Z,48.33
2023-03-27T15:35:45.245Z,49.78
2023-03-27T15:38:14.253Z,49.01
2023-03-27T15:40:44.313Z,49.95
2023-03-27T15:43:14.647Z,50.06
2023-03-27T15:45:57.335Z,49.85
2023-03-27T15:48:40.428Z,49.51
2023-03-27T15:51:18.723Z,49.00
2023-03-27T15:53:59.147Z,49.48
2023-03-27T15:56:43.002Z,48.05
2023-03-27T15:59:14.221Z,48.38
2023-03-27T16:01:55.371Z,48.18
2023-03-27T16:04:27.994Z,47.86
2023-03-27T16:07:06.191Z,48.59
2023-03-27T16:09:40.091Z,47.63
2023-03-27T16:12:10.188Z,48.64
2023-03-27T16:14:40.887Z,47.68
2023-03-27T16:17:25.223Z,48.60
2023-03-27T16:20:07.442Z,47.60
2023-03-27T16:22:37.144Z,47.41
2023-03-27T16:25:08.877Z,48.83
2023-03-27T16:27:49.907Z,48.24
2023-03-27T16:30:32.459Z,47.88
2023-03-27T16:33:00.341Z,47.92
2023-03-27T16:35:28.611Z,48.12
2023-03-27T16:37:56.623Z,48.46
2023-03-27T16:40:24.530Z,48.27
2023-03-27T16:42:51.840Z,48.30
2023-03-27T16:45:19.258Z,47.56
2023-03-27T16:47:50.866Z,48.34
2023-03-27T16:50:22.041Z,47.68
2023-03-27T16:52:49.404Z,47.62
2023-03-27T16:55:17.455Z,48.03
2023-03-27T16:57:46.363Z,49.05
2023-03-27T17:00:15.190Z,48.98
2023-03-27T17:02:44.598Z,49.35
2023-03-27T17:05:12.149Z,49.73
2023-03-27T17:07:41.880Z,50.18
2023-03-27T17:10:10.509Z,50.68
2023-03-27T17:12:38.158Z,50.77
2023-03-27T17:15:06.426Z,51.05
2023-03-27T17:17:33.774Z,51.95
2023-03-27T17:20:01.772Z,51.35
2023-03-27T17:22:30.266Z,51.64
2023-03-27T17:25:01.265Z,52.23
2023-03-27T17:27:28.748Z,52.38
2023-03-27T17:29:56.614Z,51.67
2023-03-27T17:32:27.583Z,52.73
2023-03-27T17:34:55.387Z,51.35
2023-03-27T17:37:23.039Z,51.06
2023-03-27T17:39:50.633Z,51.11
2023-03-27T17:42:18.034Z,50.77
2023-03-27T17:44:45.509Z,51.26
2023-03-27T17:47:13.391Z,50.96
2023-03-27T17:49:43.267Z,51.44
2023-03-27T17:52:12.267Z,51.90
2023-03-27T17:54:40.051Z,51.84
2023-03-27T17:57:07.482Z,51.40
2023-03-27T17:59:36.674Z,51.73
2023-03-27T18:02:04.233Z,50.88
2023-03-27T18:04:31.679Z,51.50
2023-03-27T18:06:59.021Z,50.34
2023-03-27T18:09:26.463Z,50.86
2023-03-27T18:11:54.020Z,50.34
2023-03-27T18:14:21.411Z,50.05
2023-03-27T18:16:48.836Z,50.17
2023-03-27T18:19:16.309Z,49.81
2023-03-27T18:21:43.630Z,49.75
2023-03-27T18:24:11.399Z,48.18
2023-03-27T18:26:38.649Z,49.19
2023-03-27T18:29:06.009Z,49.05
2023-03-27T18:31:33.414Z,48.82
2023-03-27T18:34:01.188Z,48.00
2023-03-27T18:36:28.622Z,48.67
2023-03-27T18:38:56.712Z,47.65
2023-03-27T18:41:24.172Z,48.18
2023-03-27T18:43:51.488Z,47.09
2023-03-27T18:46:18.846Z,47.71
2023-03-27T18:48:46.399Z,47.02
2023-03-27T18:51:14.003Z,47.35
2023-03-27T18:53:41.328Z,47.73
2023-03-27T18:56:08.731Z,46.60
2023-03-27T18:58:36.325Z,45.98
2023-03-27T19:01:10.184Z,46.49
2023-03-27T19:03:39.116Z,47.95
2023-03-27T19:06:07.509Z,46.09
2023-03-27T19:08:37.720Z,46.22
2023-03-27T19:11:06.166Z,46.80
2023-03-27T19:13:51.917Z,47.31
2023-03-27T19:16:30.823Z,47.61
2023-03-27T19:19:36.374Z,47.83
2023-03-27T19:22:26.903Z,47.40
2023-03-27T19:25:00.556Z,47.91
2023-03-27T19:27:28.594Z,48.25
2023-03-27T19:30:07.589Z,47.71
2023-03-27T19:32:34.968Z,47.59
2023-03-27T19:35:03.216Z,47.88
2023-03-27T19:37:31.429Z,48.71
2023-03-27T19:39:59.688Z,48.12
2023-03-27T19:42:28.611Z,47.81
2023-03-27T19:44:55.976Z,47.97
2023-03-27T19:47:23.310Z,48.64
2023-03-27T19:49:50.662Z,48.38
2023-03-27T19:52:19.927Z,49.22
2023-03-27T19:54:47.323Z,48.66
2023-03-27T19:57:14.842Z,49.04
2023-03-27T19:59:42.163Z,48.88
2023-03-27T20:02:11.769Z,48.45
2023-03-27T20:04:39.348Z,48.37
2023-03-27T20:07:10.168Z,49.18
2023-03-27T20:09:37.591Z,48.27
2023-03-27T20:12:05.608Z,48.19
2023-03-27T20:14:32.887Z,47.75
2023-03-27T20:17:00.369Z,48.75
2023-03-27T20:19:30.740Z,47.91
2023-03-27T20:22:00.765Z,47.57
2023-03-27T20:24:29.041Z,47.28
2023-03-27T20:26:59.573Z,47.05
2023-03-27T20:29:26.985Z,46.73
2023-03-27T20:31:54.412Z,46.79
2023-03-27T20:34:22.885Z,46.31
2023-03-27T20:36:53.360Z,46.62
2023-03-27T20:39:44.780Z,47.25
2023-03-27T20:42:15.460Z,47.72
2023-03-27T20:44:46.515Z,47.14
2023-03-27T20:47:15.209Z,48.35
2023-03-27T20:49:46.576Z,48.25
2023-03-27T20:52:15.718Z,47.89
2023-03-27T20:54:43.125Z,47.96
2023-03-27T20:57:12.003Z,48.34
2023-03-27T20:59:39.432Z,49.03
2023-03-27T21:02:06.889Z,47.89
2023-03-27T21:04:34.341Z,49.13
2023-03-27T21:07:01.711Z,48.23
2023-03-27T21:09:29.050Z,48.10
2023-03-27T21:11:56.388Z,48.62
2023-03-27T21:14:23.718Z,48.56
2023-03-27T21:16:51.315Z,48.53
2023-03-27T21:19:21.308Z,48.76
2023-03-27T21:21:49.082Z,49.18
2023-03-27T21:24:16.523Z,49.60
2023-03-27T21:26:43.783Z,49.77
2023-03-27T21:29:11.284Z,49.51
2023-03-27T21:31:39.350Z,49.89
2023-03-27T21:34:06.900Z,50.03
2023-03-27T21:36:34.519Z,49.60
2023-03-27T21:39:01.878Z,49.20
2023-03-27T21:41:29.289Z,49.68
2023-03-27T21:43:56.572Z,49.54
2023-03-27T21:46:23.924Z,49.68
2023-03-27T21:48:51.453Z,49.79
2023-03-27T21:51:18.944Z,50.51
2023-03-27T21:53:46.374Z,50.12
2023-03-27T21:56:13.644Z,50.99
2023-03-27T21:58:40.980Z,50.59
2023-03-27T22:01:08.343Z,51.44
2023-03-27T22:03:35.653Z,51.47
2023-03-27T22:06:12.243Z,50.70
2023-03-27T22:08:41.335Z,50.69
2023-03-27T22:11:08.728Z,51.11
2023-03-27T22:13:36.663Z,51.53
2023-03-27T22:16:11.956Z,51.22
2023-03-27T22:18:39.437Z,51.52
2023-03-27T22:21:16.965Z,52.20
2023-03-27T22:23:44.338Z,52.10
2023-03-27T22:26:11.885Z,52.19
2023-03-27T22:28:39.206Z,52.41
2023-03-27T22:31:07.653Z,52.34
2023-03-27T22:33:36.351Z,52.50
2023-03-27T22:36:04.668Z,51.98
2023-03-27T22:38:35.063Z,53.00
2023-03-27T22:41:04.756Z,52.49
2023-03-27T22:43:32.074Z,52.10
2023-03-27T22:46:06.308Z,52.45
2023-03-27T22:48:33.917Z,53.44
2023-03-27T22:51:01.281Z,52.80
2023-03-27T22:53:28.980Z,52.89
2023-03-27T22:55:57.207Z,53.06
2023-03-27T22:58:25.025Z,53.49
2023-03-27T23:00:52.714Z,54.12
2023-03-27T23:03:20.636Z,54.68
2023-03-27T23:05:49.257Z,53.91
2023-03-27T23:08:17.437Z,54.48
2023-03-27T23:10:44.840Z,54.57
2023-03-27T23:13:12.452Z,54.99
2023-03-27T23:15:39.732Z,55.03
2023-03-27T23:18:07.060Z,55.12
2023-03-27T23:20:34.384Z,55.37
2023-03-27T23:23:01.606Z,55.50
2023-03-27T23:25:28.911Z,55.71
2023-03-27T23:27:56.281Z,56.63
2023-03-27T23:30:23.563Z,55.92
2023-03-27T23:32:50.887Z,56.37
2023-03-27T23:35:18.248Z,55.60
2023-03-27T23:37:47.785Z,55.75
2023-03-27T23:40:15.737Z,55.25
2023-03-27T23:42:43.005Z,55.45
2023-03-27T23:45:11.892Z,55.17
2023-03-27T23:47:39.324Z,55.29
2023-03-27T23:50:06.928Z,56.05
2023-03-27T23:52:34.261Z,55.36
2023-03-27T23:55:01.523Z,55.91
2023-03-27T23:57:28.822Z,55.22
2023-03-27T23:59:56.477Z,55.81
